sensor_id;sensor_type;location;lat;lon;timestamp;temperature;humidity
35523;DHT22;61478;50.820;4.330;2022-07-23T00:00:19;19.70;99.90
35523;DHT22;61478;50.820;4.330;2022-07-23T00:02:51;19.80;99.90
35523;DHT22;61478;50.820;4.330;2022-07-23T00:05:17;19.90;99.90
35523;DHT22;61478;50.820;4.330;2022-07-23T00:07:43;19.80;99.90
35523;DHT22;61478;50.820;4.330;2022-07-23T00:10:09;19.80;99.90
35523;DHT22;61478;50.820;4.330;2022-07-23T00:12:36;19.70;99.90
35523;DHT22;61478;50.820;4.330;2022-07-23T00:15:04;19.70;99.90
35523;DHT22;61478;50.820;4.330;2022-07-23T00:17:33;19.80;99.90
35523;DHT22;61478;50.820;4.330;2022-07-23T00:20:00;19.80;99.90
35523;DHT22;61478;50.820;4.330;2022-07-23T00:22:26;19.80;99.90
35523;DHT22;61478;50.820;4.330;2022-07-23T00:24:53;19.80;99.90
35523;DHT22;61478;50.820;4.330;2022-07-23T00:27:19;19.60;99.90
35523;DHT22;61478;50.820;4.330;2022-07-23T00:29:48;19.50;99.90
35523;DHT22;61478;50.820;4.330;2022-07-23T00:32:14;19.60;99.90
35523;DHT22;61478;50.820;4.330;2022-07-23T00:34:40;19.80;99.90
35523;DHT22;61478;50.820;4.330;2022-07-23T00:37:09;19.70;99.90
35523;DHT22;61478;50.820;4.330;2022-07-23T00:39:36;19.70;99.90
35523;DHT22;61478;50.820;4.330;2022-07-23T00:42:02;19.50;99.90
35523;DHT22;61478;50.820;4.330;2022-07-23T00:44:31;19.60;99.90
35523;DHT22;61478;50.820;4.330;2022-07-23T00:46:59;19.60;99.90
35523;DHT22;61478;50.820;4.330;2022-07-23T00:49:30;19.40;99.90
35523;DHT22;61478;50.820;4.330;2022-07-23T00:51:57;19.30;99.90
35523;DHT22;61478;50.820;4.330;2022-07-23T00:54:25;19.50;99.90
35523;DHT22;61478;50.820;4.330;2022-07-23T00:56:51;19.40;99.90
35523;DHT22;61478;50.820;4.330;2022-07-23T00:59:17;19.40;99.90
35523;DHT22;61478;50.820;4.330;2022-07-23T01:01:43;19.50;99.90
35523;DHT22;61478;50.820;4.330;2022-07-23T01:04:12;19.50;99.90
35523;DHT22;61478;50.820;4.330;2022-07-23T01:06:41;19.50;99.90
35523;DHT22;61478;50.820;4.330;2022-07-23T01:09:12;19.50;99.90
35523;DHT22;61478;50.820;4.330;2022-07-23T01:11:38;19.50;99.90
35523;DHT22;61478;50.820;4.330;2022-07-23T01:14:17;19.50;99.90
35523;DHT22;61478;50.820;4.330;2022-07-23T01:16:47;19.50;99.90
35523;DHT22;61478;50.820;4.330;2022-07-23T01:19:14;19.30;99.90
35523;DHT22;61478;50.820;4.330;2022-07-23T01:21:49;19.40;99.90
35523;DHT22;61478;50.820;4.330;2022-07-23T01:24:16;19.30;99.90
35523;DHT22;61478;50.820;4.330;2022-07-23T01:26:47;19.30;99.90
35523;DHT22;61478;50.820;4.330;2022-07-23T01:29:13;19.40;99.90
35523;DHT22;61478;50.820;4.330;2022-07-23T01:31:40;19.20;99.90
35523;DHT22;61478;50.820;4.330;2022-07-23T01:34:06;19.20;99.90
35523;DHT22;61478;50.820;4.330;2022-07-23T01:36:33;19.30;99.90
35523;DHT22;61478;50.820;4.330;2022-07-23T01:38:59;19.20;99.90
35523;DHT22;61478;50.820;4.330;2022-07-23T01:41:25;19.10;99.90
35523;DHT22;61478;50.820;4.330;2022-07-23T01:43:51;19.10;99.90
35523;DHT22;61478;50.820;4.330;2022-07-23T01:46:18;19.00;99.90
35523;DHT22;61478;50.820;4.330;2022-07-23T01:48:44;19.00;99.90
35523;DHT22;61478;50.820;4.330;2022-07-23T01:51:10;19.10;99.90
35523;DHT22;61478;50.820;4.330;2022-07-23T01:53:36;18.90;99.90
35523;DHT22;61478;50.820;4.330;2022-07-23T01:56:02;18.80;99.90
35523;DHT22;61478;50.820;4.330;2022-07-23T01:58:29;19.00;99.90
35523;DHT22;61478;50.820;4.330;2022-07-23T02:00:58;19.20;99.90
35523;DHT22;61478;50.820;4.330;2022-07-23T02:03:25;18.60;99.90
35523;DHT22;61478;50.820;4.330;2022-07-23T02:05:51;18.50;99.90
35523;DHT22;61478;50.820;4.330;2022-07-23T02:08:18;18.50;99.90
35523;DHT22;61478;50.820;4.330;2022-07-23T02:10:44;18.20;99.90
35523;DHT22;61478;50.820;4.330;2022-07-23T02:13:13;18.10;99.90
35523;DHT22;61478;50.820;4.330;2022-07-23T02:15:39;18.10;99.90
35523;DHT22;61478;50.820;4.330;2022-07-23T02:18:05;18.20;99.90
35523;DHT22;61478;50.820;4.330;2022-07-23T02:20:37;18.50;99.90
35523;DHT22;61478;50.820;4.330;2022-07-23T02:23:06;18.40;99.90
35523;DHT22;61478;50.820;4.330;2022-07-23T02:25:33;18.20;99.90
35523;DHT22;61478;50.820;4.330;2022-07-23T02:28:03;18.20;99.90
35523;DHT22;61478;50.820;4.330;2022-07-23T02:30:29;18.00;99.90
35523;DHT22;61478;50.820;4.330;2022-07-23T02:32:55;17.90;99.90
35523;DHT22;61478;50.820;4.330;2022-07-23T02:35:25;17.70;99.90
35523;DHT22;61478;50.820;4.330;2022-07-23T02:37:51;17.50;99.90
35523;DHT22;61478;50.820;4.330;2022-07-23T02:40:17;17.40;99.90
35523;DHT22;61478;50.820;4.330;2022-07-23T02:42:43;17.30;99.90
35523;DHT22;61478;50.820;4.330;2022-07-23T02:45:09;17.20;99.90
35523;DHT22;61478;50.820;4.330;2022-07-23T02:47:35;17.00;99.90
35523;DHT22;61478;50.820;4.330;2022-07-23T02:50:01;17.00;99.90
35523;DHT22;61478;50.820;4.330;2022-07-23T02:52:30;17.00;99.90
35523;DHT22;61478;50.820;4.330;2022-07-23T02:55:00;17.10;99.90
35523;DHT22;61478;50.820;4.330;2022-07-23T02:57:26;17.10;99.90
35523;DHT22;61478;50.820;4.330;2022-07-23T02:59:52;17.10;99.90
35523;DHT22;61478;50.820;4.330;2022-07-23T03:02:19;17.20;99.90
35523;DHT22;61478;50.820;4.330;2022-07-23T03:04:45;17.20;99.90
35523;DHT22;61478;50.820;4.330;2022-07-23T03:07:16;17.30;99.90
35523;DHT22;61478;50.820;4.330;2022-07-23T03:09:45;17.30;99.90
35523;DHT22;61478;50.820;4.330;2022-07-23T03:12:15;17.30;99.90
35523;DHT22;61478;50.820;4.330;2022-07-23T03:14:41;17.50;99.90
35523;DHT22;61478;50.820;4.330;2022-07-23T03:17:08;17.40;99.90
35523;DHT22;61478;50.820;4.330;2022-07-23T03:19:34;17.40;99.90
35523;DHT22;61478;50.820;4.330;2022-07-23T03:22:00;17.40;99.90
35523;DHT22;61478;50.820;4.330;2022-07-23T03:24:27;17.40;99.90
35523;DHT22;61478;50.820;4.330;2022-07-23T03:27:13;17.40;99.90
35523;DHT22;61478;50.820;4.330;2022-07-23T03:29:42;17.20;99.90
35523;DHT22;61478;50.820;4.330;2022-07-23T03:32:08;17.10;99.90
35523;DHT22;61478;50.820;4.330;2022-07-23T03:34:34;17.10;99.90
35523;DHT22;61478;50.820;4.330;2022-07-23T03:37:00;17.00;99.90
35523;DHT22;61478;50.820;4.330;2022-07-23T03:39:26;17.00;99.90
35523;DHT22;61478;50.820;4.330;2022-07-23T03:41:52;17.20;99.90
35523;DHT22;61478;50.820;4.330;2022-07-23T03:44:20;17.30;99.90
35523;DHT22;61478;50.820;4.330;2022-07-23T03:46:46;17.40;99.90
35523;DHT22;61478;50.820;4.330;2022-07-23T03:49:15;17.40;99.90
35523;DHT22;61478;50.820;4.330;2022-07-23T03:51:42;17.40;99.90
35523;DHT22;61478;50.820;4.330;2022-07-23T03:54:11;17.40;99.90
35523;DHT22;61478;50.820;4.330;2022-07-23T03:56:37;17.40;99.90
35523;DHT22;61478;50.820;4.330;2022-07-23T03:59:03;17.50;99.90
35523;DHT22;61478;50.820;4.330;2022-07-23T04:01:29;17.50;99.90
35523;DHT22;61478;50.820;4.330;2022-07-23T04:03:54;17.60;99.90
35523;DHT22;61478;50.820;4.330;2022-07-23T04:06:20;17.70;99.90
35523;DHT22;61478;50.820;4.330;2022-07-23T04:08:46;17.80;99.90
35523;DHT22;61478;50.820;4.330;2022-07-23T04:11:12;17.90;99.90
35523;DHT22;61478;50.820;4.330;2022-07-23T04:13:39;17.90;99.90
35523;DHT22;61478;50.820;4.330;2022-07-23T04:16:05;17.90;99.90
35523;DHT22;61478;50.820;4.330;2022-07-23T04:18:32;17.80;99.90
35523;DHT22;61478;50.820;4.330;2022-07-23T04:20:57;17.70;99.90
35523;DHT22;61478;50.820;4.330;2022-07-23T04:23:23;17.50;99.90
35523;DHT22;61478;50.820;4.330;2022-07-23T04:25:49;17.60;99.90
35523;DHT22;61478;50.820;4.330;2022-07-23T04:28:15;17.60;99.90
35523;DHT22;61478;50.820;4.330;2022-07-23T04:30:41;17.70;99.90
35523;DHT22;61478;50.820;4.330;2022-07-23T04:33:09;17.70;99.90
35523;DHT22;61478;50.820;4.330;2022-07-23T04:35:36;17.70;99.90
35523;DHT22;61478;50.820;4.330;2022-07-23T04:38:03;17.80;99.90
35523;DHT22;61478;50.820;4.330;2022-07-23T04:40:32;17.90;99.90
35523;DHT22;61478;50.820;4.330;2022-07-23T04:42:58;18.00;99.90
35523;DHT22;61478;50.820;4.330;2022-07-23T04:45:27;18.00;99.90
35523;DHT22;61478;50.820;4.330;2022-07-23T04:47:56;18.10;99.90
35523;DHT22;61478;50.820;4.330;2022-07-23T04:50:25;18.00;99.90
35523;DHT22;61478;50.820;4.330;2022-07-23T04:52:51;17.80;99.90
35523;DHT22;61478;50.820;4.330;2022-07-23T04:55:17;17.60;99.90
35523;DHT22;61478;50.820;4.330;2022-07-23T04:57:43;17.50;99.90
35523;DHT22;61478;50.820;4.330;2022-07-23T05:00:09;17.50;99.90
35523;DHT22;61478;50.820;4.330;2022-07-23T05:02:35;17.60;99.90
35523;DHT22;61478;50.820;4.330;2022-07-23T05:05:01;17.80;99.90
35523;DHT22;61478;50.820;4.330;2022-07-23T05:07:27;17.70;99.90
35523;DHT22;61478;50.820;4.330;2022-07-23T05:09:53;17.70;99.90
35523;DHT22;61478;50.820;4.330;2022-07-23T05:12:21;17.80;99.90
35523;DHT22;61478;50.820;4.330;2022-07-23T05:14:50;18.00;99.90
35523;DHT22;61478;50.820;4.330;2022-07-23T05:17:17;18.00;99.90
35523;DHT22;61478;50.820;4.330;2022-07-23T05:19:45;18.20;99.90
35523;DHT22;61478;50.820;4.330;2022-07-23T05:22:11;18.20;99.90
35523;DHT22;61478;50.820;4.330;2022-07-23T05:24:37;18.20;99.90
35523;DHT22;61478;50.820;4.330;2022-07-23T05:27:06;18.40;99.90
35523;DHT22;61478;50.820;4.330;2022-07-23T05:29:32;18.50;99.90
35523;DHT22;61478;50.820;4.330;2022-07-23T05:31:58;18.80;99.90
35523;DHT22;61478;50.820;4.330;2022-07-23T05:34:24;19.00;99.90
35523;DHT22;61478;50.820;4.330;2022-07-23T05:36:51;19.00;99.90
35523;DHT22;61478;50.820;4.330;2022-07-23T05:39:17;18.90;99.90
35523;DHT22;61478;50.820;4.330;2022-07-23T05:41:43;18.50;99.90
35523;DHT22;61478;50.820;4.330;2022-07-23T05:44:13;18.30;99.90
35523;DHT22;61478;50.820;4.330;2022-07-23T05:46:38;18.20;99.90
35523;DHT22;61478;50.820;4.330;2022-07-23T05:49:04;18.30;99.90
35523;DHT22;61478;50.820;4.330;2022-07-23T05:51:30;18.50;99.90
35523;DHT22;61478;50.820;4.330;2022-07-23T05:53:57;18.50;99.90
35523;DHT22;61478;50.820;4.330;2022-07-23T05:56:23;18.80;99.90
35523;DHT22;61478;50.820;4.330;2022-07-23T05:58:52;18.80;99.90
35523;DHT22;61478;50.820;4.330;2022-07-23T06:01:18;18.90;99.90
35523;DHT22;61478;50.820;4.330;2022-07-23T06:03:44;19.00;99.90
35523;DHT22;61478;50.820;4.330;2022-07-23T06:06:13;19.00;99.90
35523;DHT22;61478;50.820;4.330;2022-07-23T06:08:39;18.90;99.90
35523;DHT22;61478;50.820;4.330;2022-07-23T06:11:05;19.00;99.90
35523;DHT22;61478;50.820;4.330;2022-07-23T06:13:35;18.90;99.90
35523;DHT22;61478;50.820;4.330;2022-07-23T06:16:01;19.00;99.90
35523;DHT22;61478;50.820;4.330;2022-07-23T06:18:27;19.20;99.90
35523;DHT22;61478;50.820;4.330;2022-07-23T06:20:53;19.30;99.90
35523;DHT22;61478;50.820;4.330;2022-07-23T06:23:22;19.30;99.90
35523;DHT22;61478;50.820;4.330;2022-07-23T06:25:48;19.30;99.90
35523;DHT22;61478;50.820;4.330;2022-07-23T06:28:14;19.60;99.90
35523;DHT22;61478;50.820;4.330;2022-07-23T06:30:41;19.70;99.90
35523;DHT22;61478;50.820;4.330;2022-07-23T06:33:10;19.80;99.90
35523;DHT22;61478;50.820;4.330;2022-07-23T06:35:38;19.90;99.90
35523;DHT22;61478;50.820;4.330;2022-07-23T06:38:07;19.70;99.90
35523;DHT22;61478;50.820;4.330;2022-07-23T06:40:33;19.70;99.90
35523;DHT22;61478;50.820;4.330;2022-07-23T06:42:59;19.60;99.90
35523;DHT22;61478;50.820;4.330;2022-07-23T06:45:25;19.50;99.90
35523;DHT22;61478;50.820;4.330;2022-07-23T06:47:51;19.60;99.90
35523;DHT22;61478;50.820;4.330;2022-07-23T06:50:17;19.80;99.90
35523;DHT22;61478;50.820;4.330;2022-07-23T06:52:43;19.80;99.90
35523;DHT22;61478;50.820;4.330;2022-07-23T06:55:09;19.90;99.90
35523;DHT22;61478;50.820;4.330;2022-07-23T06:57:35;19.80;99.90
35523;DHT22;61478;50.820;4.330;2022-07-23T07:00:04;19.90;99.90
35523;DHT22;61478;50.820;4.330;2022-07-23T07:02:31;20.10;99.90
35523;DHT22;61478;50.820;4.330;2022-07-23T07:04:58;20.10;99.90
35523;DHT22;61478;50.820;4.330;2022-07-23T07:07:24;19.90;99.90
35523;DHT22;61478;50.820;4.330;2022-07-23T07:09:49;20.10;99.90
35523;DHT22;61478;50.820;4.330;2022-07-23T07:12:15;20.10;99.90
35523;DHT22;61478;50.820;4.330;2022-07-23T07:14:41;20.00;99.90
35523;DHT22;61478;50.820;4.330;2022-07-23T07:17:07;20.00;99.90
35523;DHT22;61478;50.820;4.330;2022-07-23T07:19:33;20.20;99.90
35523;DHT22;61478;50.820;4.330;2022-07-23T07:22:00;20.30;99.90
35523;DHT22;61478;50.820;4.330;2022-07-23T07:24:26;20.40;99.90
35523;DHT22;61478;50.820;4.330;2022-07-23T07:26:52;20.40;99.90
35523;DHT22;61478;50.820;4.330;2022-07-23T07:29:18;20.50;99.90
35523;DHT22;61478;50.820;4.330;2022-07-23T07:31:45;20.60;99.90
35523;DHT22;61478;50.820;4.330;2022-07-23T07:34:11;20.70;99.90
35523;DHT22;61478;50.820;4.330;2022-07-23T07:36:37;20.80;99.90
35523;DHT22;61478;50.820;4.330;2022-07-23T07:39:04;20.90;99.90
35523;DHT22;61478;50.820;4.330;2022-07-23T07:41:35;20.90;99.90
35523;DHT22;61478;50.820;4.330;2022-07-23T07:44:02;20.90;99.90
35523;DHT22;61478;50.820;4.330;2022-07-23T07:46:31;20.90;99.90
35523;DHT22;61478;50.820;4.330;2022-07-23T07:49:00;21.00;99.90
35523;DHT22;61478;50.820;4.330;2022-07-23T07:51:29;21.20;99.90
35523;DHT22;61478;50.820;4.330;2022-07-23T07:53:59;21.20;99.90
35523;DHT22;61478;50.820;4.330;2022-07-23T07:56:25;21.20;99.90
35523;DHT22;61478;50.820;4.330;2022-07-23T07:58:50;21.20;99.90
35523;DHT22;61478;50.820;4.330;2022-07-23T08:01:16;21.30;99.90
35523;DHT22;61478;50.820;4.330;2022-07-23T08:03:42;21.50;99.90
35523;DHT22;61478;50.820;4.330;2022-07-23T08:06:08;21.70;99.90
35523;DHT22;61478;50.820;4.330;2022-07-23T08:08:34;21.90;99.90
35523;DHT22;61478;50.820;4.330;2022-07-23T08:11:00;22.60;99.90
35523;DHT22;61478;50.820;4.330;2022-07-23T08:13:26;23.50;99.90
35523;DHT22;61478;50.820;4.330;2022-07-23T08:15:51;24.40;99.90
35523;DHT22;61478;50.820;4.330;2022-07-23T08:18:19;25.20;99.90
35523;DHT22;61478;50.820;4.330;2022-07-23T08:20:45;25.80;99.90
35523;DHT22;61478;50.820;4.330;2022-07-23T08:23:12;26.50;99.90
35523;DHT22;61478;50.820;4.330;2022-07-23T08:25:40;27.10;99.90
35523;DHT22;61478;50.820;4.330;2022-07-23T08:28:09;27.50;99.90
35523;DHT22;61478;50.820;4.330;2022-07-23T08:30:36;27.90;99.90
35523;DHT22;61478;50.820;4.330;2022-07-23T08:33:05;27.80;99.90
35523;DHT22;61478;50.820;4.330;2022-07-23T08:35:38;28.10;99.90
35523;DHT22;61478;50.820;4.330;2022-07-23T08:38:06;28.50;99.90
35523;DHT22;61478;50.820;4.330;2022-07-23T08:40:35;28.70;99.90
35523;DHT22;61478;50.820;4.330;2022-07-23T08:43:04;29.00;99.40
35523;DHT22;61478;50.820;4.330;2022-07-23T08:45:35;29.00;98.70
35523;DHT22;61478;50.820;4.330;2022-07-23T08:48:01;28.60;98.70
35523;DHT22;61478;50.820;4.330;2022-07-23T08:50:27;29.10;98.30
35523;DHT22;61478;50.820;4.330;2022-07-23T08:52:53;29.50;97.50
35523;DHT22;61478;50.820;4.330;2022-07-23T08:55:21;29.50;96.70
35523;DHT22;61478;50.820;4.330;2022-07-23T08:57:48;29.60;96.30
35523;DHT22;61478;50.820;4.330;2022-07-23T09:00:15;29.70;95.60
35523;DHT22;61478;50.820;4.330;2022-07-23T09:02:42;29.50;96.10
35523;DHT22;61478;50.820;4.330;2022-07-23T09:05:10;29.70;95.20
35523;DHT22;61478;50.820;4.330;2022-07-23T09:08:11;29.70;95.10
35523;DHT22;61478;50.820;4.330;2022-07-23T09:10:49;30.00;94.50
35523;DHT22;61478;50.820;4.330;2022-07-23T09:13:38;30.20;94.20
35523;DHT22;61478;50.820;4.330;2022-07-23T09:16:08;30.60;93.80
35523;DHT22;61478;50.820;4.330;2022-07-23T09:18:40;30.70;93.80
35523;DHT22;61478;50.820;4.330;2022-07-23T09:21:20;30.80;92.50
35523;DHT22;61478;50.820;4.330;2022-07-23T09:23:58;31.10;91.90
35523;DHT22;61478;50.820;4.330;2022-07-23T09:26:36;30.90;91.80
35523;DHT22;61478;50.820;4.330;2022-07-23T09:29:17;31.10;91.20
35523;DHT22;61478;50.820;4.330;2022-07-23T09:32:02;31.20;91.70
35523;DHT22;61478;50.820;4.330;2022-07-23T09:34:35;30.80;92.60
35523;DHT22;61478;50.820;4.330;2022-07-23T09:37:16;30.70;92.10
35523;DHT22;61478;50.820;4.330;2022-07-23T09:39:44;30.60;92.70
35523;DHT22;61478;50.820;4.330;2022-07-23T09:42:24;30.80;91.20
35523;DHT22;61478;50.820;4.330;2022-07-23T09:44:55;31.20;88.80
35523;DHT22;61478;50.820;4.330;2022-07-23T09:47:23;31.40;88.60
35523;DHT22;61478;50.820;4.330;2022-07-23T09:50:03;31.60;89.80
35523;DHT22;61478;50.820;4.330;2022-07-23T09:52:45;32.10;89.10
35523;DHT22;61478;50.820;4.330;2022-07-23T09:55:13;32.10;89.20
35523;DHT22;61478;50.820;4.330;2022-07-23T09:57:43;32.00;86.10
35523;DHT22;61478;50.820;4.330;2022-07-23T10:00:11;32.00;83.40
35523;DHT22;61478;50.820;4.330;2022-07-23T10:02:39;31.70;84.30
35523;DHT22;61478;50.820;4.330;2022-07-23T10:05:06;31.80;85.60
35523;DHT22;61478;50.820;4.330;2022-07-23T10:07:37;31.70;84.20
35523;DHT22;61478;50.820;4.330;2022-07-23T10:10:05;31.90;86.10
35523;DHT22;61478;50.820;4.330;2022-07-23T10:12:32;32.20;86.40
35523;DHT22;61478;50.820;4.330;2022-07-23T10:15:01;32.00;85.30
35523;DHT22;61478;50.820;4.330;2022-07-23T10:17:30;32.10;83.20
35523;DHT22;61478;50.820;4.330;2022-07-23T10:19:56;32.10;82.30
35523;DHT22;61478;50.820;4.330;2022-07-23T10:22:25;32.40;81.60
35523;DHT22;61478;50.820;4.330;2022-07-23T10:25:20;32.30;82.70
35523;DHT22;61478;50.820;4.330;2022-07-23T10:30:39;31.40;82.80
35523;DHT22;61478;50.820;4.330;2022-07-23T10:38:54;31.30;84.80
35523;DHT22;61478;50.820;4.330;2022-07-23T10:41:33;31.70;82.70
35523;DHT22;61478;50.820;4.330;2022-07-23T10:44:14;31.90;80.20
35523;DHT22;61478;50.820;4.330;2022-07-23T10:47:00;31.90;81.90
35523;DHT22;61478;50.820;4.330;2022-07-23T10:49:31;31.90;83.10
35523;DHT22;61478;50.820;4.330;2022-07-23T10:55:38;30.80;83.20
35523;DHT22;61478;50.820;4.330;2022-07-23T10:57:48;30.50;84.50
35523;DHT22;61478;50.820;4.330;2022-07-23T11:00:16;30.80;85.50
35523;DHT22;61478;50.820;4.330;2022-07-23T11:02:47;31.20;84.50
35523;DHT22;61478;50.820;4.330;2022-07-23T11:05:22;30.90;81.80
35523;DHT22;61478;50.820;4.330;2022-07-23T11:34:31;31.40;81.90
35523;DHT22;61478;50.820;4.330;2022-07-23T11:37:02;31.50;81.40
35523;DHT22;61478;50.820;4.330;2022-07-23T11:39:30;31.70;80.30
35523;DHT22;61478;50.820;4.330;2022-07-23T11:41:57;31.20;80.70
35523;DHT22;61478;50.820;4.330;2022-07-23T11:44:30;31.00;81.20
35523;DHT22;61478;50.820;4.330;2022-07-23T11:49:23;30.80;81.80
35523;DHT22;61478;50.820;4.330;2022-07-23T11:54:50;30.80;82.40
35523;DHT22;61478;50.820;4.330;2022-07-23T11:57:16;30.90;81.50
35523;DHT22;61478;50.820;4.330;2022-07-23T11:59:43;30.60;82.40
35523;DHT22;61478;50.820;4.330;2022-07-23T12:02:11;30.40;83.70
35523;DHT22;61478;50.820;4.330;2022-07-23T12:04:45;30.00;82.90
35523;DHT22;61478;50.820;4.330;2022-07-23T12:07:31;29.50;84.70
35523;DHT22;61478;50.820;4.330;2022-07-23T12:12:42;29.70;82.40
35523;DHT22;61478;50.820;4.330;2022-07-23T12:15:09;29.70;82.30
35523;DHT22;61478;50.820;4.330;2022-07-23T12:17:41;30.10;82.00
35523;DHT22;61478;50.820;4.330;2022-07-23T12:20:09;30.30;81.60
35523;DHT22;61478;50.820;4.330;2022-07-23T12:22:46;30.50;81.10
35523;DHT22;61478;50.820;4.330;2022-07-23T12:25:16;30.80;82.30
35523;DHT22;61478;50.820;4.330;2022-07-23T12:27:43;30.90;82.10
35523;DHT22;61478;50.820;4.330;2022-07-23T12:30:27;30.50;83.50
35523;DHT22;61478;50.820;4.330;2022-07-23T12:32:55;30.40;83.20
35523;DHT22;61478;50.820;4.330;2022-07-23T12:35:22;30.00;82.20
35523;DHT22;61478;50.820;4.330;2022-07-23T12:37:50;29.80;82.30
35523;DHT22;61478;50.820;4.330;2022-07-23T12:40:48;29.90;85.80
35523;DHT22;61478;50.820;4.330;2022-07-23T12:45:53;29.30;85.50
35523;DHT22;61478;50.820;4.330;2022-07-23T12:48:21;29.00;84.40
35523;DHT22;61478;50.820;4.330;2022-07-23T12:53:26;29.70;86.60
35523;DHT22;61478;50.820;4.330;2022-07-23T12:58:44;29.10;87.60
35523;DHT22;61478;50.820;4.330;2022-07-23T13:04:13;29.00;86.30
35523;DHT22;61478;50.820;4.330;2022-07-23T13:06:42;29.60;83.90
35523;DHT22;61478;50.820;4.330;2022-07-23T13:09:15;30.00;85.20
35523;DHT22;61478;50.820;4.330;2022-07-23T13:11:42;30.30;83.80
35523;DHT22;61478;50.820;4.330;2022-07-23T13:14:13;29.70;83.90
35523;DHT22;61478;50.820;4.330;2022-07-23T13:16:40;29.40;83.90
35523;DHT22;61478;50.820;4.330;2022-07-23T13:19:06;29.40;83.10
35523;DHT22;61478;50.820;4.330;2022-07-23T13:21:33;29.40;82.20
35523;DHT22;61478;50.820;4.330;2022-07-23T13:23:59;29.90;83.60
35523;DHT22;61478;50.820;4.330;2022-07-23T13:26:25;29.80;83.50
35523;DHT22;61478;50.820;4.330;2022-07-23T13:28:52;29.60;84.10
35523;DHT22;61478;50.820;4.330;2022-07-23T13:31:18;29.50;84.10
35523;DHT22;61478;50.820;4.330;2022-07-23T13:33:44;29.90;84.40
35523;DHT22;61478;50.820;4.330;2022-07-23T13:36:10;29.60;82.40
35523;DHT22;61478;50.820;4.330;2022-07-23T13:38:36;29.10;82.50
35523;DHT22;61478;50.820;4.330;2022-07-23T13:41:05;29.00;84.80
35523;DHT22;61478;50.820;4.330;2022-07-23T13:43:34;29.00;85.30
35523;DHT22;61478;50.820;4.330;2022-07-23T13:46:00;29.00;85.00
35523;DHT22;61478;50.820;4.330;2022-07-23T13:48:29;28.80;86.50
35523;DHT22;61478;50.820;4.330;2022-07-23T13:50:55;28.70;85.20
35523;DHT22;61478;50.820;4.330;2022-07-23T13:53:23;28.70;85.60
35523;DHT22;61478;50.820;4.330;2022-07-23T13:55:51;28.70;86.30
35523;DHT22;61478;50.820;4.330;2022-07-23T13:58:18;28.60;86.00
35523;DHT22;61478;50.820;4.330;2022-07-23T14:00:49;28.50;86.50
35523;DHT22;61478;50.820;4.330;2022-07-23T14:03:20;28.50;87.40
35523;DHT22;61478;50.820;4.330;2022-07-23T14:05:46;28.70;86.30
35523;DHT22;61478;50.820;4.330;2022-07-23T14:08:12;28.90;87.10
35523;DHT22;61478;50.820;4.330;2022-07-23T14:10:38;28.80;88.60
35523;DHT22;61478;50.820;4.330;2022-07-23T14:13:04;28.60;89.00
35523;DHT22;61478;50.820;4.330;2022-07-23T14:15:31;28.30;88.80
35523;DHT22;61478;50.820;4.330;2022-07-23T14:17:57;28.30;88.50
35523;DHT22;61478;50.820;4.330;2022-07-23T14:20:26;28.40;88.00
35523;DHT22;61478;50.820;4.330;2022-07-23T14:22:56;28.40;89.40
35523;DHT22;61478;50.820;4.330;2022-07-23T14:25:26;28.40;88.20
35523;DHT22;61478;50.820;4.330;2022-07-23T14:27:53;28.40;89.80
35523;DHT22;61478;50.820;4.330;2022-07-23T14:30:19;28.50;89.20
35523;DHT22;61478;50.820;4.330;2022-07-23T14:32:51;28.30;87.40
35523;DHT22;61478;50.820;4.330;2022-07-23T14:35:20;28.10;87.50
35523;DHT22;61478;50.820;4.330;2022-07-23T14:37:49;28.30;88.80
35523;DHT22;61478;50.820;4.330;2022-07-23T14:40:15;28.50;89.70
35523;DHT22;61478;50.820;4.330;2022-07-23T14:42:41;28.30;89.40
35523;DHT22;61478;50.820;4.330;2022-07-23T14:45:11;28.20;89.60
35523;DHT22;61478;50.820;4.330;2022-07-23T14:47:37;28.20;90.80
35523;DHT22;61478;50.820;4.330;2022-07-23T14:50:07;28.30;90.10
35523;DHT22;61478;50.820;4.330;2022-07-23T14:52:34;28.30;89.20
35523;DHT22;61478;50.820;4.330;2022-07-23T14:55:04;28.40;89.80
35523;DHT22;61478;50.820;4.330;2022-07-23T14:57:30;28.20;88.20
35523;DHT22;61478;50.820;4.330;2022-07-23T14:59:57;28.40;88.90
35523;DHT22;61478;50.820;4.330;2022-07-23T15:02:26;28.20;88.70
35523;DHT22;61478;50.820;4.330;2022-07-23T15:04:52;28.40;89.10
35523;DHT22;61478;50.820;4.330;2022-07-23T15:07:19;28.80;86.20
35523;DHT22;61478;50.820;4.330;2022-07-23T15:09:44;28.40;87.50
35523;DHT22;61478;50.820;4.330;2022-07-23T15:12:10;28.20;89.70
35523;DHT22;61478;50.820;4.330;2022-07-23T15:14:41;28.00;89.70
35523;DHT22;61478;50.820;4.330;2022-07-23T15:17:08;28.10;89.00
35523;DHT22;61478;50.820;4.330;2022-07-23T15:19:34;27.90;88.30
35523;DHT22;61478;50.820;4.330;2022-07-23T15:22:01;27.80;89.90
35523;DHT22;61478;50.820;4.330;2022-07-23T15:24:27;27.80;90.10
35523;DHT22;61478;50.820;4.330;2022-07-23T15:26:57;28.10;90.40
35523;DHT22;61478;50.820;4.330;2022-07-23T15:29:23;28.10;89.90
35523;DHT22;61478;50.820;4.330;2022-07-23T15:31:55;28.00;89.00
35523;DHT22;61478;50.820;4.330;2022-07-23T15:34:26;28.10;90.30
35523;DHT22;61478;50.820;4.330;2022-07-23T15:36:52;28.30;89.20
35523;DHT22;61478;50.820;4.330;2022-07-23T15:39:17;28.30;87.60
35523;DHT22;61478;50.820;4.330;2022-07-23T15:41:43;28.20;88.90
35523;DHT22;61478;50.820;4.330;2022-07-23T15:44:09;28.10;89.70
35523;DHT22;61478;50.820;4.330;2022-07-23T15:46:36;28.20;90.40
35523;DHT22;61478;50.820;4.330;2022-07-23T15:49:02;28.40;90.50
35523;DHT22;61478;50.820;4.330;2022-07-23T15:51:27;28.60;90.50
35523;DHT22;61478;50.820;4.330;2022-07-23T15:53:54;28.80;85.80
35523;DHT22;61478;50.820;4.330;2022-07-23T15:56:20;29.00;88.80
35523;DHT22;61478;50.820;4.330;2022-07-23T15:58:46;29.10;87.00
35523;DHT22;61478;50.820;4.330;2022-07-23T16:01:15;28.90;87.00
35523;DHT22;61478;50.820;4.330;2022-07-23T16:03:44;28.50;88.60
35523;DHT22;61478;50.820;4.330;2022-07-23T16:06:10;28.10;90.20
35523;DHT22;61478;50.820;4.330;2022-07-23T16:08:37;27.80;90.30
35523;DHT22;61478;50.820;4.330;2022-07-23T16:11:03;27.80;90.70
35523;DHT22;61478;50.820;4.330;2022-07-23T16:13:28;27.70;89.90
35523;DHT22;61478;50.820;4.330;2022-07-23T16:15:55;27.70;89.80
35523;DHT22;61478;50.820;4.330;2022-07-23T16:18:25;27.70;89.70
35523;DHT22;61478;50.820;4.330;2022-07-23T16:20:52;27.70;90.30
35523;DHT22;61478;50.820;4.330;2022-07-23T16:23:18;27.70;90.60
35523;DHT22;61478;50.820;4.330;2022-07-23T16:25:44;27.70;89.60
35523;DHT22;61478;50.820;4.330;2022-07-23T16:28:10;27.80;89.90
35523;DHT22;61478;50.820;4.330;2022-07-23T16:30:37;28.10;88.70
35523;DHT22;61478;50.820;4.330;2022-07-23T16:33:05;28.30;90.00